sensor_id;sensor_type;location;lat;lon;timestamp;temperature;humidity
46438;DHT22;32137;48.728;9.142;2024-02-26T00:00:12;7.30;99.90
46438;DHT22;32137;48.728;9.142;2024-02-26T00:02:38;7.40;99.90
46438;DHT22;32137;48.728;9.142;2024-02-26T00:05:05;7.40;99.90
46438;DHT22;32137;48.728;9.142;2024-02-26T00:07:31;7.30;99.90
46438;DHT22;32137;48.728;9.142;2024-02-26T00:09:57;7.30;99.90
46438;DHT22;32137;48.728;9.142;2024-02-26T00:12:22;7.30;99.90
46438;DHT22;32137;48.728;9.142;2024-02-26T00:14:47;7.30;99.90
46438;DHT22;32137;48.728;9.142;2024-02-26T00:17:14;7.30;99.90
46438;DHT22;32137;48.728;9.142;2024-02-26T00:19:40;7.30;99.90
46438;DHT22;32137;48.728;9.142;2024-02-26T00:22:06;7.30;99.90
46438;DHT22;32137;48.728;9.142;2024-02-26T00:24:31;7.40;99.90
46438;DHT22;32137;48.728;9.142;2024-02-26T00:26:57;7.40;99.90
46438;DHT22;32137;48.728;9.142;2024-02-26T00:29:22;7.30;99.90
46438;DHT22;32137;48.728;9.142;2024-02-26T00:31:48;7.40;99.90
46438;DHT22;32137;48.728;9.142;2024-02-26T00:34:14;7.40;99.90
46438;DHT22;32137;48.728;9.142;2024-02-26T00:36:39;7.40;99.90
46438;DHT22;32137;48.728;9.142;2024-02-26T00:39:05;7.40;99.90
46438;DHT22;32137;48.728;9.142;2024-02-26T00:41:30;7.30;99.90
46438;DHT22;32137;48.728;9.142;2024-02-26T00:43:55;7.30;99.90
46438;DHT22;32137;48.728;9.142;2024-02-26T00:46:21;7.30;99.90
46438;DHT22;32137;48.728;9.142;2024-02-26T00:48:46;7.30;99.90
46438;DHT22;32137;48.728;9.142;2024-02-26T00:51:12;7.30;99.90
46438;DHT22;32137;48.728;9.142;2024-02-26T00:53:37;7.30;99.90
46438;DHT22;32137;48.728;9.142;2024-02-26T00:56:03;7.30;99.90
46438;DHT22;32137;48.728;9.142;2024-02-26T00:58:28;7.30;99.90
46438;DHT22;32137;48.728;9.142;2024-02-26T01:00:54;7.30;99.90
46438;DHT22;32137;48.728;9.142;2024-02-26T01:03:20;7.30;99.90
46438;DHT22;32137;48.728;9.142;2024-02-26T01:05:45;7.30;99.90
46438;DHT22;32137;48.728;9.142;2024-02-26T01:08:11;7.30;99.90
46438;DHT22;32137;48.728;9.142;2024-02-26T01:10:36;7.30;99.90
46438;DHT22;32137;48.728;9.142;2024-02-26T01:13:02;7.40;99.90
46438;DHT22;32137;48.728;9.142;2024-02-26T01:15:28;7.40;99.90
46438;DHT22;32137;48.728;9.142;2024-02-26T01:17:53;7.40;99.90
46438;DHT22;32137;48.728;9.142;2024-02-26T01:20:19;7.40;99.90
46438;DHT22;32137;48.728;9.142;2024-02-26T01:22:45;7.40;99.90
46438;DHT22;32137;48.728;9.142;2024-02-26T01:25:10;7.30;99.90
46438;DHT22;32137;48.728;9.142;2024-02-26T01:27:36;7.20;99.90
46438;DHT22;32137;48.728;9.142;2024-02-26T01:30:02;7.20;99.90
46438;DHT22;32137;48.728;9.142;2024-02-26T01:32:29;7.20;99.90
46438;DHT22;32137;48.728;9.142;2024-02-26T01:34:54;7.20;99.90
46438;DHT22;32137;48.728;9.142;2024-02-26T01:37:20;7.20;99.90
46438;DHT22;32137;48.728;9.142;2024-02-26T01:39:45;7.30;99.90
46438;DHT22;32137;48.728;9.142;2024-02-26T01:42:11;7.30;99.90
46438;DHT22;32137;48.728;9.142;2024-02-26T01:44:36;7.20;99.90
46438;DHT22;32137;48.728;9.142;2024-02-26T01:47:03;7.20;99.90
46438;DHT22;32137;48.728;9.142;2024-02-26T01:49:29;7.10;99.90
46438;DHT22;32137;48.728;9.142;2024-02-26T01:51:54;7.10;99.90
46438;DHT22;32137;48.728;9.142;2024-02-26T01:54:20;7.10;99.90
46438;DHT22;32137;48.728;9.142;2024-02-26T01:56:46;7.20;99.90
46438;DHT22;32137;48.728;9.142;2024-02-26T01:59:11;7.20;99.90
46438;DHT22;32137;48.728;9.142;2024-02-26T02:01:37;7.20;99.90
46438;DHT22;32137;48.728;9.142;2024-02-26T02:04:03;7.20;93.40
46438;DHT22;32137;48.728;9.142;2024-02-26T02:06:28;7.20;29.40
46438;DHT22;32137;48.728;9.142;2024-02-26T02:08:54;7.20;1.00
46438;DHT22;32137;48.728;9.142;2024-02-26T02:11:19;7.20;1.00
46438;DHT22;32137;48.728;9.142;2024-02-26T02:13:45;7.10;1.00
46438;DHT22;32137;48.728;9.142;2024-02-26T02:16:10;7.20;1.00
46438;DHT22;32137;48.728;9.142;2024-02-26T02:18:36;7.20;1.00
46438;DHT22;32137;48.728;9.142;2024-02-26T02:21:01;7.20;1.00
46438;DHT22;32137;48.728;9.142;2024-02-26T02:23:27;7.20;1.00
46438;DHT22;32137;48.728;9.142;2024-02-26T02:25:52;7.30;1.00
46438;DHT22;32137;48.728;9.142;2024-02-26T02:28:18;7.30;1.00
46438;DHT22;32137;48.728;9.142;2024-02-26T02:30:44;7.30;1.00
46438;DHT22;32137;48.728;9.142;2024-02-26T02:33:10;7.30;9.10
46438;DHT22;32137;48.728;9.142;2024-02-26T02:35:36;7.30;4.90
46438;DHT22;32137;48.728;9.142;2024-02-26T02:38:02;7.40;1.00
46438;DHT22;32137;48.728;9.142;2024-02-26T02:40:28;7.30;1.00
46438;DHT22;32137;48.728;9.142;2024-02-26T02:42:53;7.30;1.00
46438;DHT22;32137;48.728;9.142;2024-02-26T02:45:18;7.30;1.00
46438;DHT22;32137;48.728;9.142;2024-02-26T02:47:44;7.30;1.00
46438;DHT22;32137;48.728;9.142;2024-02-26T02:50:09;7.30;1.00
46438;DHT22;32137;48.728;9.142;2024-02-26T02:52:35;7.30;1.00
46438;DHT22;32137;48.728;9.142;2024-02-26T02:55:00;7.30;1.00
46438;DHT22;32137;48.728;9.142;2024-02-26T02:57:26;7.30;1.00
46438;DHT22;32137;48.728;9.142;2024-02-26T02:59:51;7.30;17.00
46438;DHT22;32137;48.728;9.142;2024-02-26T03:02:17;7.30;97.40
46438;DHT22;32137;48.728;9.142;2024-02-26T03:04:42;7.30;99.90
46438;DHT22;32137;48.728;9.142;2024-02-26T03:07:08;7.30;99.90
46438;DHT22;32137;48.728;9.142;2024-02-26T03:09:33;7.30;99.90
46438;DHT22;32137;48.728;9.142;2024-02-26T03:11:59;7.30;99.90
46438;DHT22;32137;48.728;9.142;2024-02-26T03:14:24;7.30;96.00
46438;DHT22;32137;48.728;9.142;2024-02-26T03:16:53;7.40;88.20
46438;DHT22;32137;48.728;9.142;2024-02-26T03:19:18;7.40;55.10
46438;DHT22;32137;48.728;9.142;2024-02-26T03:21:44;7.40;15.80
46438;DHT22;32137;48.728;9.142;2024-02-26T03:24:09;7.40;29.90
46438;DHT22;32137;48.728;9.142;2024-02-26T03:26:36;7.40;14.30
46438;DHT22;32137;48.728;9.142;2024-02-26T03:29:01;7.50;1.00
46438;DHT22;32137;48.728;9.142;2024-02-26T03:31:28;7.50;1.00
46438;DHT22;32137;48.728;9.142;2024-02-26T03:33:53;7.60;1.00
46438;DHT22;32137;48.728;9.142;2024-02-26T03:36:19;7.60;2.00
46438;DHT22;32137;48.728;9.142;2024-02-26T03:38:44;7.60;20.00
46438;DHT22;32137;48.728;9.142;2024-02-26T03:41:10;7.60;2.70
46438;DHT22;32137;48.728;9.142;2024-02-26T03:43:35;7.60;99.90
46438;DHT22;32137;48.728;9.142;2024-02-26T03:46:01;7.60;99.90
46438;DHT22;32137;48.728;9.142;2024-02-26T03:48:26;7.60;99.90
46438;DHT22;32137;48.728;9.142;2024-02-26T03:50:51;7.60;99.90
46438;DHT22;32137;48.728;9.142;2024-02-26T03:53:17;7.60;99.90
46438;DHT22;32137;48.728;9.142;2024-02-26T03:55:43;7.60;99.90
46438;DHT22;32137;48.728;9.142;2024-02-26T03:58:08;7.60;99.90
46438;DHT22;32137;48.728;9.142;2024-02-26T04:00:34;7.60;99.90
46438;DHT22;32137;48.728;9.142;2024-02-26T04:03:00;7.60;99.90
46438;DHT22;32137;48.728;9.142;2024-02-26T04:05:25;7.60;99.90
46438;DHT22;32137;48.728;9.142;2024-02-26T04:07:50;7.70;99.90
46438;DHT22;32137;48.728;9.142;2024-02-26T04:10:16;7.60;99.90
46438;DHT22;32137;48.728;9.142;2024-02-26T04:12:42;7.60;99.90
46438;DHT22;32137;48.728;9.142;2024-02-26T04:15:08;7.60;99.80
46438;DHT22;32137;48.728;9.142;2024-02-26T04:17:34;7.60;99.90
46438;DHT22;32137;48.728;9.142;2024-02-26T04:19:59;7.60;99.90
46438;DHT22;32137;48.728;9.142;2024-02-26T04:22:25;7.60;99.90
46438;DHT22;32137;48.728;9.142;2024-02-26T04:24:50;7.60;99.90
46438;DHT22;32137;48.728;9.142;2024-02-26T04:27:16;7.60;56.10
46438;DHT22;32137;48.728;9.142;2024-02-26T04:29:41;7.60;25.50
46438;DHT22;32137;48.728;9.142;2024-02-26T04:32:06;7.60;1.00
46438;DHT22;32137;48.728;9.142;2024-02-26T04:34:32;7.50;5.80
46438;DHT22;32137;48.728;9.142;2024-02-26T04:36:57;7.50;16.80
46438;DHT22;32137;48.728;9.142;2024-02-26T04:39:23;7.50;29.80
46438;DHT22;32137;48.728;9.142;2024-02-26T04:41:49;7.40;28.10
46438;DHT22;32137;48.728;9.142;2024-02-26T04:44:14;7.40;47.00
46438;DHT22;32137;48.728;9.142;2024-02-26T04:46:40;7.30;37.20
46438;DHT22;32137;48.728;9.142;2024-02-26T04:49:05;7.30;31.80
46438;DHT22;32137;48.728;9.142;2024-02-26T04:51:31;7.30;40.10
46438;DHT22;32137;48.728;9.142;2024-02-26T04:53:56;7.20;58.40
46438;DHT22;32137;48.728;9.142;2024-02-26T04:56:22;7.10;30.60
46438;DHT22;32137;48.728;9.142;2024-02-26T04:58:47;7.10;48.20
46438;DHT22;32137;48.728;9.142;2024-02-26T05:01:13;7.10;63.20
46438;DHT22;32137;48.728;9.142;2024-02-26T05:03:38;7.00;68.80
46438;DHT22;32137;48.728;9.142;2024-02-26T05:06:04;7.10;84.70
46438;DHT22;32137;48.728;9.142;2024-02-26T05:08:30;7.00;80.00
46438;DHT22;32137;48.728;9.142;2024-02-26T05:10:56;7.00;59.50
46438;DHT22;32137;48.728;9.142;2024-02-26T05:13:21;7.10;58.80
46438;DHT22;32137;48.728;9.142;2024-02-26T05:15:47;7.10;69.90
46438;DHT22;32137;48.728;9.142;2024-02-26T05:18:15;7.10;94.10
46438;DHT22;32137;48.728;9.142;2024-02-26T05:20:40;7.00;99.90
46438;DHT22;32137;48.728;9.142;2024-02-26T05:23:06;7.00;99.90
46438;DHT22;32137;48.728;9.142;2024-02-26T05:25:31;7.00;99.90
46438;DHT22;32137;48.728;9.142;2024-02-26T05:27:57;7.00;99.90
46438;DHT22;32137;48.728;9.142;2024-02-26T05:30:22;7.00;99.90
46438;DHT22;32137;48.728;9.142;2024-02-26T05:32:47;7.00;99.90
46438;DHT22;32137;48.728;9.142;2024-02-26T05:35:13;7.10;99.90
46438;DHT22;32137;48.728;9.142;2024-02-26T05:37:38;7.00;99.90
46438;DHT22;32137;48.728;9.142;2024-02-26T05:40:04;7.00;1.00
46438;DHT22;32137;48.728;9.142;2024-02-26T05:42:31;7.00;1.00
46438;DHT22;32137;48.728;9.142;2024-02-26T05:44:56;7.00;1.00
46438;DHT22;32137;48.728;9.142;2024-02-26T05:47:22;7.00;1.00
46438;DHT22;32137;48.728;9.142;2024-02-26T05:49:47;7.00;29.10
46438;DHT22;32137;48.728;9.142;2024-02-26T05:52:14;7.00;92.80
46438;DHT22;32137;48.728;9.142;2024-02-26T05:54:39;7.00;66.40
46438;DHT22;32137;48.728;9.142;2024-02-26T05:57:05;7.00;23.90
46438;DHT22;32137;48.728;9.142;2024-02-26T05:59:30;7.00;1.00
46438;DHT22;32137;48.728;9.142;2024-02-26T06:01:56;7.00;57.90
46438;DHT22;32137;48.728;9.142;2024-02-26T06:04:21;7.00;2.10
46438;DHT22;32137;48.728;9.142;2024-02-26T06:06:47;6.90;12.60
46438;DHT22;32137;48.728;9.142;2024-02-26T06:09:12;6.90;81.90
46438;DHT22;32137;48.728;9.142;2024-02-26T06:11:38;6.80;28.70
46438;DHT22;32137;48.728;9.142;2024-02-26T06:14:03;6.80;24.40
46438;DHT22;32137;48.728;9.142;2024-02-26T06:16:29;6.80;14.00
46438;DHT22;32137;48.728;9.142;2024-02-26T06:18:54;6.80;51.80
46438;DHT22;32137;48.728;9.142;2024-02-26T06:21:20;6.80;89.20
46438;DHT22;32137;48.728;9.142;2024-02-26T06:23:45;6.80;68.50
46438;DHT22;32137;48.728;9.142;2024-02-26T06:26:10;6.80;99.50
46438;DHT22;32137;48.728;9.142;2024-02-26T06:28:36;6.80;99.90
46438;DHT22;32137;48.728;9.142;2024-02-26T06:31:05;6.80;99.90
46438;DHT22;32137;48.728;9.142;2024-02-26T06:33:31;6.80;99.90
46438;DHT22;32137;48.728;9.142;2024-02-26T06:35:56;6.80;99.90
46438;DHT22;32137;48.728;9.142;2024-02-26T06:38:22;6.80;99.90
46438;DHT22;32137;48.728;9.142;2024-02-26T06:40:47;6.80;99.90
46438;DHT22;32137;48.728;9.142;2024-02-26T06:43:12;6.80;99.90
46438;DHT22;32137;48.728;9.142;2024-02-26T06:45:38;6.80;99.90
46438;DHT22;32137;48.728;9.142;2024-02-26T06:48:03;6.80;99.90
46438;DHT22;32137;48.728;9.142;2024-02-26T06:50:29;6.80;86.00
46438;DHT22;32137;48.728;9.142;2024-02-26T06:52:54;6.80;66.90
46438;DHT22;32137;48.728;9.142;2024-02-26T06:55:20;6.90;31.80
46438;DHT22;32137;48.728;9.142;2024-02-26T06:57:45;6.90;1.00
46438;DHT22;32137;48.728;9.142;2024-02-26T07:00:11;7.00;27.60
46438;DHT22;32137;48.728;9.142;2024-02-26T07:02:40;7.00;16.10
46438;DHT22;32137;48.728;9.142;2024-02-26T07:05:05;7.00;2.20
46438;DHT22;32137;48.728;9.142;2024-02-26T07:07:31;6.90;2.90
46438;DHT22;32137;48.728;9.142;2024-02-26T07:09:56;7.00;18.10
46438;DHT22;32137;48.728;9.142;2024-02-26T07:12:22;6.90;1.00
46438;DHT22;32137;48.728;9.142;2024-02-26T07:14:48;7.00;11.60
46438;DHT22;32137;48.728;9.142;2024-02-26T07:17:14;7.00;27.90
46438;DHT22;32137;48.728;9.142;2024-02-26T07:19:41;7.00;60.20
46438;DHT22;32137;48.728;9.142;2024-02-26T07:22:07;7.00;33.40
46438;DHT22;32137;48.728;9.142;2024-02-26T07:24:32;7.10;20.50
46438;DHT22;32137;48.728;9.142;2024-02-26T07:26:58;7.10;36.80
46438;DHT22;32137;48.728;9.142;2024-02-26T07:29:23;7.20;7.50
46438;DHT22;32137;48.728;9.142;2024-02-26T07:31:49;7.20;1.00
46438;DHT22;32137;48.728;9.142;2024-02-26T07:34:14;7.20;1.00
46438;DHT22;32137;48.728;9.142;2024-02-26T07:36:40;7.30;1.00
46438;DHT22;32137;48.728;9.142;2024-02-26T07:39:05;7.30;1.00
46438;DHT22;32137;48.728;9.142;2024-02-26T07:41:30;7.40;1.00
46438;DHT22;32137;48.728;9.142;2024-02-26T07:43:56;7.40;1.00
46438;DHT22;32137;48.728;9.142;2024-02-26T07:46:22;7.40;1.00
46438;DHT22;32137;48.728;9.142;2024-02-26T07:48:47;7.50;1.00
46438;DHT22;32137;48.728;9.142;2024-02-26T07:51:13;7.50;99.90
46438;DHT22;32137;48.728;9.142;2024-02-26T07:53:39;7.50;99.90
46438;DHT22;32137;48.728;9.142;2024-02-26T07:56:05;7.50;99.90
46438;DHT22;32137;48.728;9.142;2024-02-26T07:58:31;7.60;1.00
46438;DHT22;32137;48.728;9.142;2024-02-26T08:00:57;7.50;1.00
46438;DHT22;32137;48.728;9.142;2024-02-26T08:03:23;7.50;1.00
46438;DHT22;32137;48.728;9.142;2024-02-26T08:05:48;7.60;1.00
46438;DHT22;32137;48.728;9.142;2024-02-26T08:08:14;7.70;1.00
46438;DHT22;32137;48.728;9.142;2024-02-26T08:10:39;7.70;1.00
46438;DHT22;32137;48.728;9.142;2024-02-26T08:13:05;7.80;99.90
46438;DHT22;32137;48.728;9.142;2024-02-26T08:15:31;7.80;99.90
46438;DHT22;32137;48.728;9.142;2024-02-26T08:17:56;7.80;99.90
46438;DHT22;32137;48.728;9.142;2024-02-26T08:20:22;7.90;99.90
46438;DHT22;32137;48.728;9.142;2024-02-26T08:22:47;7.90;99.90
46438;DHT22;32137;48.728;9.142;2024-02-26T08:25:13;7.90;99.90
46438;DHT22;32137;48.728;9.142;2024-02-26T08:27:38;7.90;99.90
46438;DHT22;32137;48.728;9.142;2024-02-26T08:30:04;7.90;99.90
46438;DHT22;32137;48.728;9.142;2024-02-26T08:32:30;7.90;99.90
46438;DHT22;32137;48.728;9.142;2024-02-26T08:34:55;7.90;99.90
46438;DHT22;32137;48.728;9.142;2024-02-26T08:37:21;7.90;99.90
46438;DHT22;32137;48.728;9.142;2024-02-26T08:39:47;7.90;71.70
46438;DHT22;32137;48.728;9.142;2024-02-26T08:42:12;8.00;72.30
46438;DHT22;32137;48.728;9.142;2024-02-26T08:44:38;8.00;60.40
46438;DHT22;32137;48.728;9.142;2024-02-26T08:47:03;8.10;42.90
46438;DHT22;32137;48.728;9.142;2024-02-26T08:49:29;8.20;1.00
46438;DHT22;32137;48.728;9.142;2024-02-26T08:51:55;8.20;1.00
46438;DHT22;32137;48.728;9.142;2024-02-26T08:54:21;8.30;1.00
46438;DHT22;32137;48.728;9.142;2024-02-26T08:56:47;8.30;1.00
46438;DHT22;32137;48.728;9.142;2024-02-26T08:59:12;8.30;1.00
46438;DHT22;32137;48.728;9.142;2024-02-26T09:01:38;8.30;1.00
46438;DHT22;32137;48.728;9.142;2024-02-26T09:04:03;8.30;1.00
46438;DHT22;32137;48.728;9.142;2024-02-26T09:06:29;8.40;1.00
46438;DHT22;32137;48.728;9.142;2024-02-26T09:08:54;8.40;1.00
46438;DHT22;32137;48.728;9.142;2024-02-26T09:11:20;8.50;1.00
46438;DHT22;32137;48.728;9.142;2024-02-26T09:13:45;8.60;1.00
46438;DHT22;32137;48.728;9.142;2024-02-26T09:16:11;8.60;1.00
46438;DHT22;32137;48.728;9.142;2024-02-26T09:18:36;8.60;1.00
46438;DHT22;32137;48.728;9.142;2024-02-26T09:21:05;8.70;1.00
46438;DHT22;32137;48.728;9.142;2024-02-26T09:23:33;8.70;1.00
46438;DHT22;32137;48.728;9.142;2024-02-26T09:26:00;8.80;1.00
46438;DHT22;32137;48.728;9.142;2024-02-26T09:28:25;8.80;1.00
46438;DHT22;32137;48.728;9.142;2024-02-26T09:30:51;8.80;1.00
46438;DHT22;32137;48.728;9.142;2024-02-26T09:33:16;8.90;1.00
46438;DHT22;32137;48.728;9.142;2024-02-26T09:35:42;8.90;1.00
46438;DHT22;32137;48.728;9.142;2024-02-26T09:38:07;8.90;1.00
46438;DHT22;32137;48.728;9.142;2024-02-26T09:40:33;8.90;1.00
46438;DHT22;32137;48.728;9.142;2024-02-26T09:42:59;9.00;1.00
46438;DHT22;32137;48.728;9.142;2024-02-26T09:45:25;9.00;1.00
46438;DHT22;32137;48.728;9.142;2024-02-26T09:47:52;9.20;1.00
46438;DHT22;32137;48.728;9.142;2024-02-26T09:50:20;9.30;1.00
46438;DHT22;32137;48.728;9.142;2024-02-26T09:52:48;9.50;1.00
46438;DHT22;32137;48.728;9.142;2024-02-26T09:55:13;9.60;1.00
46438;DHT22;32137;48.728;9.142;2024-02-26T09:57:39;9.70;99.90
46438;DHT22;32137;48.728;9.142;2024-02-26T10:00:07;9.70;99.90
46438;DHT22;32137;48.728;9.142;2024-02-26T10:02:35;9.80;99.90
46438;DHT22;32137;48.728;9.142;2024-02-26T10:05:02;9.80;99.90
46438;DHT22;32137;48.728;9.142;2024-02-26T10:07:30;9.90;99.90
46438;DHT22;32137;48.728;9.142;2024-02-26T10:09:56;10.00;99.90
46438;DHT22;32137;48.728;9.142;2024-02-26T10:12:21;10.10;99.90
46438;DHT22;32137;48.728;9.142;2024-02-26T10:14:47;10.20;99.90
46438;DHT22;32137;48.728;9.142;2024-02-26T10:17:12;10.30;99.90
46438;DHT22;32137;48.728;9.142;2024-02-26T10:19:38;10.40;99.90
46438;DHT22;32137;48.728;9.142;2024-02-26T10:22:04;10.50;99.90
46438;DHT22;32137;48.728;9.142;2024-02-26T10:24:30;10.60;99.90
46438;DHT22;32137;48.728;9.142;2024-02-26T10:26:55;10.80;99.90
46438;DHT22;32137;48.728;9.142;2024-02-26T10:29:21;10.80;99.90
46438;DHT22;32137;48.728;9.142;2024-02-26T10:31:47;10.90;99.90
46438;DHT22;32137;48.728;9.142;2024-02-26T10:34:14;10.90;99.90
46438;DHT22;32137;48.728;9.142;2024-02-26T10:36:40;10.90;99.90
46438;DHT22;32137;48.728;9.142;2024-02-26T10:39:06;10.90;99.90
46438;DHT22;32137;48.728;9.142;2024-02-26T10:41:35;10.90;99.90
46438;DHT22;32137;48.728;9.142;2024-02-26T10:44:00;10.90;99.90
46438;DHT22;32137;48.728;9.142;2024-02-26T10:46:26;11.00;99.90
46438;DHT22;32137;48.728;9.142;2024-02-26T10:48:52;10.90;99.90
46438;DHT22;32137;48.728;9.142;2024-02-26T10:51:23;11.00;99.90
46438;DHT22;32137;48.728;9.142;2024-02-26T10:53:51;10.90;99.90
46438;DHT22;32137;48.728;9.142;2024-02-26T10:56:22;11.00;99.90
46438;DHT22;32137;48.728;9.142;2024-02-26T10:58:50;11.00;99.90
46438;DHT22;32137;48.728;9.142;2024-02-26T11:01:16;11.00;99.90
46438;DHT22;32137;48.728;9.142;2024-02-26T11:03:41;11.00;99.90
46438;DHT22;32137;48.728;9.142;2024-02-26T11:06:07;11.00;99.90
46438;DHT22;32137;48.728;9.142;2024-02-26T11:08:33;11.10;99.90
46438;DHT22;32137;48.728;9.142;2024-02-26T11:10:59;11.10;99.90
46438;DHT22;32137;48.728;9.142;2024-02-26T11:13:26;11.10;99.90
46438;DHT22;32137;48.728;9.142;2024-02-26T11:15:52;11.10;99.90
46438;DHT22;32137;48.728;9.142;2024-02-26T11:18:20;11.10;99.90
46438;DHT22;32137;48.728;9.142;2024-02-26T11:20:48;11.10;99.90
46438;DHT22;32137;48.728;9.142;2024-02-26T11:23:14;11.10;99.90
46438;DHT22;32137;48.728;9.142;2024-02-26T11:25:40;11.10;99.90
46438;DHT22;32137;48.728;9.142;2024-02-26T11:28:07;11.20;99.90
46438;DHT22;32137;48.728;9.142;2024-02-26T11:30:35;11.30;99.90
46438;DHT22;32137;48.728;9.142;2024-02-26T11:33:03;11.30;99.90
46438;DHT22;32137;48.728;9.142;2024-02-26T11:35:29;11.40;99.90
46438;DHT22;32137;48.728;9.142;2024-02-26T11:37:55;11.40;99.90
46438;DHT22;32137;48.728;9.142;2024-02-26T11:40:24;11.50;99.90
46438;DHT22;32137;48.728;9.142;2024-02-26T11:42:51;11.60;99.90
46438;DHT22;32137;48.728;9.142;2024-02-26T11:48:02;11.50;99.90
46438;DHT22;32137;48.728;9.142;2024-02-26T11:50:34;11.60;99.90
46438;DHT22;32137;48.728;9.142;2024-02-26T11:53:19;11.70;99.90
46438;DHT22;32137;48.728;9.142;2024-02-26T11:55:44;11.90;99.90
46438;DHT22;32137;48.728;9.142;2024-02-26T11:58:10;12.00;99.90
46438;DHT22;32137;48.728;9.142;2024-02-26T12:00:35;12.00;99.90
46438;DHT22;32137;48.728;9.142;2024-02-26T12:03:01;12.00;99.80
46438;DHT22;32137;48.728;9.142;2024-02-26T12:05:32;12.10;99.70
46438;DHT22;32137;48.728;9.142;2024-02-26T12:08:08;12.10;99.90
46438;DHT22;32137;48.728;9.142;2024-02-26T12:10:35;12.00;97.30
46438;DHT22;32137;48.728;9.142;2024-02-26T12:13:09;11.90;98.60
46438;DHT22;32137;48.728;9.142;2024-02-26T12:15:36;11.80;98.60
46438;DHT22;32137;48.728;9.142;2024-02-26T12:18:02;11.80;97.20
46438;DHT22;32137;48.728;9.142;2024-02-26T12:20:28;11.70;99.90
46438;DHT22;32137;48.728;9.142;2024-02-26T12:22:54;11.60;99.90
46438;DHT22;32137;48.728;9.142;2024-02-26T12:25:26;11.60;99.90
46438;DHT22;32137;48.728;9.142;2024-02-26T12:27:55;11.60;99.90
46438;DHT22;32137;48.728;9.142;2024-02-26T12:30:21;11.60;99.90
46438;DHT22;32137;48.728;9.142;2024-02-26T12:32:49;11.60;99.90
46438;DHT22;32137;48.728;9.142;2024-02-26T12:35:15;11.70;99.90
46438;DHT22;32137;48.728;9.142;2024-02-26T12:37:41;11.90;99.50
46438;DHT22;32137;48.728;9.142;2024-02-26T12:40:08;12.10;99.50
46438;DHT22;32137;48.728;9.142;2024-02-26T12:42:34;12.40;99.90
46438;DHT22;32137;48.728;9.142;2024-02-26T12:45:05;12.70;97.80
46438;DHT22;32137;48.728;9.142;2024-02-26T12:47:44;13.00;95.30
46438;DHT22;32137;48.728;9.142;2024-02-26T12:50:11;13.20;71.60
46438;DHT22;32137;48.728;9.142;2024-02-26T12:52:43;13.40;70.10
46438;DHT22;32137;48.728;9.142;2024-02-26T12:55:09;13.40;69.50
46438;DHT22;32137;48.728;9.142;2024-02-26T12:57:37;13.40;57.20
46438;DHT22;32137;48.728;9.142;2024-02-26T13:00:03;13.40;64.00
46438;DHT22;32137;48.728;9.142;2024-02-26T13:02:30;13.40;65.20
46438;DHT22;32137;48.728;9.142;2024-02-26T13:04:56;13.50;65.00
46438;DHT22;32137;48.728;9.142;2024-02-26T13:07:22;13.50;51.00
46438;DHT22;32137;48.728;9.142;2024-02-26T13:09:48;13.70;46.80
46438;DHT22;32137;48.728;9.142;2024-02-26T13:12:13;13.70;55.80
46438;DHT22;32137;48.728;9.142;2024-02-26T13:14:39;13.70;63.10
46438;DHT22;32137;48.728;9.142;2024-02-26T13:17:05;13.70;57.00
46438;DHT22;32137;48.728;9.142;2024-02-26T13:19:30;13.70;50.10
46438;DHT22;32137;48.728;9.142;2024-02-26T13:21:56;13.70;52.30
46438;DHT22;32137;48.728;9.142;2024-02-26T13:24:28;13.70;59.10
46438;DHT22;32137;48.728;9.142;2024-02-26T13:26:54;13.60;55.70
46438;DHT22;32137;48.728;9.142;2024-02-26T13:29:20;13.70;60.30
46438;DHT22;32137;48.728;9.142;2024-02-26T13:31:45;13.80;49.00
46438;DHT22;32137;48.728;9.142;2024-02-26T13:34:22;14.00;55.00
46438;DHT22;32137;48.728;9.142;2024-02-26T13:36:48;14.10;48.60
46438;DHT22;32137;48.728;9.142;2024-02-26T13:39:20;14.30;38.00
46438;DHT22;32137;48.728;9.142;2024-02-26T13:41:46;14.40;37.20
46438;DHT22;32137;48.728;9.142;2024-02-26T13:44:11;14.60;30.60
46438;DHT22;32137;48.728;9.142;2024-02-26T13:46:37;14.80;25.10
46438;DHT22;32137;48.728;9.142;2024-02-26T13:49:02;15.10;18.80
46438;DHT22;32137;48.728;9.142;2024-02-26T13:51:28;15.30;17.30
46438;DHT22;32137;48.728;9.142;2024-02-26T13:54:00;15.40;8.90
46438;DHT22;32137;48.728;9.142;2024-02-26T13:56:26;15.30;11.30
46438;DHT22;32137;48.728;9.142;2024-02-26T13:58:51;15.10;7.50
46438;DHT22;32137;48.728;9.142;2024-02-26T14:01:17;15.10;12.50
46438;DHT22;32137;48.728;9.142;2024-02-26T14:03:42;15.10;11.50
46438;DHT22;32137;48.728;9.142;2024-02-26T14:06:07;15.20;7.60
46438;DHT22;32137;48.728;9.142;2024-02-26T14:08:33;15.30;7.40
46438;DHT22;32137;48.728;9.142;2024-02-26T14:10:58;15.40;4.20
46438;DHT22;32137;48.728;9.142;2024-02-26T14:13:25;15.50;3.10
46438;DHT22;32137;48.728;9.142;2024-02-26T14:15:51;15.40;2.40
46438;DHT22;32137;48.728;9.142;2024-02-26T14:18:16;15.30;1.00
46438;DHT22;32137;48.728;9.142;2024-02-26T14:20:42;15.30;4.00
46438;DHT22;32137;48.728;9.142;2024-02-26T14:23:07;15.20;1.50
46438;DHT22;32137;48.728;9.142;2024-02-26T14:25:34;15.20;2.10
46438;DHT22;32137;48.728;9.142;2024-02-26T14:27:59;15.30;1.00
46438;DHT22;32137;48.728;9.142;2024-02-26T14:30:25;15.30;1.00
46438;DHT22;32137;48.728;9.142;2024-02-26T14:32:51;15.30;1.00
46438;DHT22;32137;48.728;9.142;2024-02-26T14:35:17;15.40;1.00
46438;DHT22;32137;48.728;9.142;2024-02-26T14:37:42;15.30;1.00
46438;DHT22;32137;48.728;9.142;2024-02-26T14:40:11;15.20;4.40
46438;DHT22;32137;48.728;9.142;2024-02-26T14:42:37;15.00;3.30
46438;DHT22;32137;48.728;9.142;2024-02-26T14:45:02;14.80;12.60
46438;DHT22;32137;48.728;9.142;2024-02-26T14:47:30;14.70;43.60
46438;DHT22;32137;48.728;9.142;2024-02-26T14:49:55;14.50;74.10
46438;DHT22;32137;48.728;9.142;2024-02-26T14:52:21;14.50;46.20
46438;DHT22;32137;48.728;9.142;2024-02-26T14:54:46;14.40;31.90
46438;DHT22;32137;48.728;9.142;2024-02-26T14:57:12;14.40;30.50
46438;DHT22;32137;48.728;9.142;2024-02-26T14:59:37;14.40;17.30
46438;DHT22;32137;48.728;9.142;2024-02-26T15:02:03;14.30;12.50
46438;DHT22;32137;48.728;9.142;2024-02-26T15:04:28;14.10;9.20
46438;DHT22;32137;48.728;9.142;2024-02-26T15:06:54;14.10;7.50
46438;DHT22;32137;48.728;9.142;2024-02-26T15:09:20;14.00;4.00
46438;DHT22;32137;48.728;9.142;2024-02-26T15:11:46;13.90;5.70
46438;DHT22;32137;48.728;9.142;2024-02-26T15:14:11;13.80;4.70
46438;DHT22;32137;48.728;9.142;2024-02-26T15:16:37;13.80;5.60
46438;DHT22;32137;48.728;9.142;2024-02-26T15:19:02;13.70;6.90
46438;DHT22;32137;48.728;9.142;2024-02-26T15:21:32;13.70;7.20
46438;DHT22;32137;48.728;9.142;2024-02-26T15:23:58;13.60;14.10
46438;DHT22;32137;48.728;9.142;2024-02-26T15:26:23;13.60;13.90
46438;DHT22;32137;48.728;9.142;2024-02-26T15:28:50;13.50;12.70
46438;DHT22;32137;48.728;9.142;2024-02-26T15:31:16;13.50;16.20
46438;DHT22;32137;48.728;9.142;2024-02-26T15:33:42;13.40;18.90
46438;DHT22;32137;48.728;9.142;2024-02-26T15:36:07;13.30;20.40
46438;DHT22;32137;48.728;9.142;2024-02-26T15:38:35;13.30;24.90